sensor_id;sensor_type;location;lat;lon;timestamp;temperature;humidity
37408;DHT22;24866;50.248;8.252;2022-11-02T00:02:02;9.30;99.90
37408;DHT22;24866;50.248;8.252;2022-11-02T00:04:32;9.30;99.90
37408;DHT22;24866;50.248;8.252;2022-11-02T00:07:04;9.30;99.90
37408;DHT22;24866;50.248;8.252;2022-11-02T00:09:34;9.30;99.90
37408;DHT22;24866;50.248;8.252;2022-11-02T00:12:05;9.30;99.90
37408;DHT22;24866;50.248;8.252;2022-11-02T00:14:35;9.20;99.90
37408;DHT22;24866;50.248;8.252;2022-11-02T00:17:06;9.30;99.90
37408;DHT22;24866;50.248;8.252;2022-11-02T00:19:37;9.20;99.90
37408;DHT22;24866;50.248;8.252;2022-11-02T00:22:08;9.30;99.90
37408;DHT22;24866;50.248;8.252;2022-11-02T00:24:38;9.30;99.90
37408;DHT22;24866;50.248;8.252;2022-11-02T00:27:08;9.40;99.90
37408;DHT22;24866;50.248;8.252;2022-11-02T00:29:38;9.40;99.90
37408;DHT22;24866;50.248;8.252;2022-11-02T00:32:08;9.30;99.90
37408;DHT22;24866;50.248;8.252;2022-11-02T00:34:38;9.30;99.90
37408;DHT22;24866;50.248;8.252;2022-11-02T00:37:09;9.40;99.90
37408;DHT22;24866;50.248;8.252;2022-11-02T00:39:40;9.30;99.90
37408;DHT22;24866;50.248;8.252;2022-11-02T00:42:10;9.30;99.90
37408;DHT22;24866;50.248;8.252;2022-11-02T00:44:40;9.40;99.90
37408;DHT22;24866;50.248;8.252;2022-11-02T00:47:09;9.40;99.90
37408;DHT22;24866;50.248;8.252;2022-11-02T00:49:40;9.40;99.90
37408;DHT22;24866;50.248;8.252;2022-11-02T00:52:11;9.30;99.90
37408;DHT22;24866;50.248;8.252;2022-11-02T00:54:41;9.40;99.90
37408;DHT22;24866;50.248;8.252;2022-11-02T00:57:11;9.40;99.90
37408;DHT22;24866;50.248;8.252;2022-11-02T00:59:41;9.50;99.90
37408;DHT22;24866;50.248;8.252;2022-11-02T01:02:11;9.40;99.90
37408;DHT22;24866;50.248;8.252;2022-11-02T01:04:41;9.40;99.90
37408;DHT22;24866;50.248;8.252;2022-11-02T01:07:12;9.50;99.90
37408;DHT22;24866;50.248;8.252;2022-11-02T01:09:42;9.50;99.90
37408;DHT22;24866;50.248;8.252;2022-11-02T01:12:12;9.50;99.90
37408;DHT22;24866;50.248;8.252;2022-11-02T01:14:42;9.50;99.90
37408;DHT22;24866;50.248;8.252;2022-11-02T01:17:12;9.50;99.90
37408;DHT22;24866;50.248;8.252;2022-11-02T01:19:41;9.60;99.90
37408;DHT22;24866;50.248;8.252;2022-11-02T01:22:13;9.60;99.90
37408;DHT22;24866;50.248;8.252;2022-11-02T01:24:43;9.60;99.90
37408;DHT22;24866;50.248;8.252;2022-11-02T01:27:12;9.60;99.90
37408;DHT22;24866;50.248;8.252;2022-11-02T01:29:42;9.60;99.90
37408;DHT22;24866;50.248;8.252;2022-11-02T01:32:12;9.60;99.90
37408;DHT22;24866;50.248;8.252;2022-11-02T01:34:42;9.60;99.90
37408;DHT22;24866;50.248;8.252;2022-11-02T01:37:13;9.70;99.90
37408;DHT22;24866;50.248;8.252;2022-11-02T01:39:43;10.00;99.90
37408;DHT22;24866;50.248;8.252;2022-11-02T01:42:18;10.00;99.90
37408;DHT22;24866;50.248;8.252;2022-11-02T01:44:48;10.20;99.90
37408;DHT22;24866;50.248;8.252;2022-11-02T01:47:21;10.10;99.90
37408;DHT22;24866;50.248;8.252;2022-11-02T01:50:03;10.00;99.90
37408;DHT22;24866;50.248;8.252;2022-11-02T01:52:36;9.90;99.90
37408;DHT22;24866;50.248;8.252;2022-11-02T01:55:08;9.80;99.90
37408;DHT22;24866;50.248;8.252;2022-11-02T01:57:41;9.70;99.90
37408;DHT22;24866;50.248;8.252;2022-11-02T02:00:14;9.70;99.90
37408;DHT22;24866;50.248;8.252;2022-11-02T02:02:50;9.60;99.90
37408;DHT22;24866;50.248;8.252;2022-11-02T02:05:22;9.60;99.90
37408;DHT22;24866;50.248;8.252;2022-11-02T02:07:54;9.60;99.90
37408;DHT22;24866;50.248;8.252;2022-11-02T02:10:25;9.70;99.90
37408;DHT22;24866;50.248;8.252;2022-11-02T02:12:54;9.80;99.90
37408;DHT22;24866;50.248;8.252;2022-11-02T02:15:35;9.80;99.90
37408;DHT22;24866;50.248;8.252;2022-11-02T02:18:11;9.90;99.90
37408;DHT22;24866;50.248;8.252;2022-11-02T02:20:54;10.00;99.90
37408;DHT22;24866;50.248;8.252;2022-11-02T02:23:51;10.00;99.90
37408;DHT22;24866;50.248;8.252;2022-11-02T02:26:46;10.00;99.90
37408;DHT22;24866;50.248;8.252;2022-11-02T02:29:22;9.90;99.90
37408;DHT22;24866;50.248;8.252;2022-11-02T02:31:57;10.00;99.90
37408;DHT22;24866;50.248;8.252;2022-11-02T02:34:34;10.00;99.90
37408;DHT22;24866;50.248;8.252;2022-11-02T02:37:09;10.00;99.90
37408;DHT22;24866;50.248;8.252;2022-11-02T02:39:45;10.00;99.90
37408;DHT22;24866;50.248;8.252;2022-11-02T02:42:20;10.10;99.90
37408;DHT22;24866;50.248;8.252;2022-11-02T02:44:57;10.10;99.90
37408;DHT22;24866;50.248;8.252;2022-11-02T02:47:32;10.10;99.90
37408;DHT22;24866;50.248;8.252;2022-11-02T02:50:08;10.10;99.90
37408;DHT22;24866;50.248;8.252;2022-11-02T02:52:41;10.20;99.90
37408;DHT22;24866;50.248;8.252;2022-11-02T02:55:17;10.30;99.90
37408;DHT22;24866;50.248;8.252;2022-11-02T02:57:48;10.20;99.90
37408;DHT22;24866;50.248;8.252;2022-11-02T03:00:21;10.20;99.90
37408;DHT22;24866;50.248;8.252;2022-11-02T03:02:51;10.20;99.90
37408;DHT22;24866;50.248;8.252;2022-11-02T03:05:31;10.20;99.90
37408;DHT22;24866;50.248;8.252;2022-11-02T03:08:05;10.20;99.90
37408;DHT22;24866;50.248;8.252;2022-11-02T03:10:41;10.20;99.90
37408;DHT22;24866;50.248;8.252;2022-11-02T03:13:28;10.30;99.90
37408;DHT22;24866;50.248;8.252;2022-11-02T03:16:06;10.20;99.90
37408;DHT22;24866;50.248;8.252;2022-11-02T03:18:45;10.20;99.90
37408;DHT22;24866;50.248;8.252;2022-11-02T03:21:23;10.20;99.90
37408;DHT22;24866;50.248;8.252;2022-11-02T03:23:59;10.20;99.90
37408;DHT22;24866;50.248;8.252;2022-11-02T03:26:32;10.20;99.90
37408;DHT22;24866;50.248;8.252;2022-11-02T03:29:10;10.20;99.90
37408;DHT22;24866;50.248;8.252;2022-11-02T03:31:46;10.20;99.90
37408;DHT22;24866;50.248;8.252;2022-11-02T03:34:24;10.10;99.90
37408;DHT22;24866;50.248;8.252;2022-11-02T03:36:59;10.20;99.90
37408;DHT22;24866;50.248;8.252;2022-11-02T03:39:34;10.20;99.90
37408;DHT22;24866;50.248;8.252;2022-11-02T03:42:06;10.20;99.90
37408;DHT22;24866;50.248;8.252;2022-11-02T03:44:38;10.20;99.90
37408;DHT22;24866;50.248;8.252;2022-11-02T03:47:11;10.20;99.90
37408;DHT22;24866;50.248;8.252;2022-11-02T03:49:44;10.20;99.90
37408;DHT22;24866;50.248;8.252;2022-11-02T03:52:19;10.20;99.90
37408;DHT22;24866;50.248;8.252;2022-11-02T03:54:55;10.20;99.90
37408;DHT22;24866;50.248;8.252;2022-11-02T03:57:31;10.30;99.90
37408;DHT22;24866;50.248;8.252;2022-11-02T04:00:08;10.30;99.90
37408;DHT22;24866;50.248;8.252;2022-11-02T04:02:41;10.30;99.90
37408;DHT22;24866;50.248;8.252;2022-11-02T04:05:13;10.40;99.90
37408;DHT22;24866;50.248;8.252;2022-11-02T04:07:47;10.40;99.90
37408;DHT22;24866;50.248;8.252;2022-11-02T04:10:36;10.40;99.90
37408;DHT22;24866;50.248;8.252;2022-11-02T04:13:26;10.50;99.90
37408;DHT22;24866;50.248;8.252;2022-11-02T04:16:15;10.70;99.90
37408;DHT22;24866;50.248;8.252;2022-11-02T04:18:46;10.80;99.90
37408;DHT22;24866;50.248;8.252;2022-11-02T04:21:33;10.80;99.90
37408;DHT22;24866;50.248;8.252;2022-11-02T04:24:04;10.90;99.90
37408;DHT22;24866;50.248;8.252;2022-11-02T04:26:51;10.80;99.90
37408;DHT22;24866;50.248;8.252;2022-11-02T04:29:21;10.90;99.90
37408;DHT22;24866;50.248;8.252;2022-11-02T04:31:51;10.80;99.90
37408;DHT22;24866;50.248;8.252;2022-11-02T04:34:22;10.80;99.90
37408;DHT22;24866;50.248;8.252;2022-11-02T04:36:51;10.80;99.90
37408;DHT22;24866;50.248;8.252;2022-11-02T04:39:21;10.70;99.90
37408;DHT22;24866;50.248;8.252;2022-11-02T04:41:50;10.70;99.90
37408;DHT22;24866;50.248;8.252;2022-11-02T04:44:19;10.60;99.90
37408;DHT22;24866;50.248;8.252;2022-11-02T04:46:50;10.60;99.90
37408;DHT22;24866;50.248;8.252;2022-11-02T04:49:22;10.60;99.90
37408;DHT22;24866;50.248;8.252;2022-11-02T04:51:51;10.50;99.90
37408;DHT22;24866;50.248;8.252;2022-11-02T04:54:21;10.60;99.90
37408;DHT22;24866;50.248;8.252;2022-11-02T04:56:51;10.50;99.90
37408;DHT22;24866;50.248;8.252;2022-11-02T04:59:21;10.50;99.90
37408;DHT22;24866;50.248;8.252;2022-11-02T05:01:51;10.40;99.90
37408;DHT22;24866;50.248;8.252;2022-11-02T05:04:22;10.40;99.90
37408;DHT22;24866;50.248;8.252;2022-11-02T05:06:52;10.50;99.90
37408;DHT22;24866;50.248;8.252;2022-11-02T05:09:22;10.50;99.90
37408;DHT22;24866;50.248;8.252;2022-11-02T05:11:52;10.40;99.90
37408;DHT22;24866;50.248;8.252;2022-11-02T05:14:22;10.40;99.90
37408;DHT22;24866;50.248;8.252;2022-11-02T05:16:52;10.30;99.90
37408;DHT22;24866;50.248;8.252;2022-11-02T05:19:23;10.30;99.90
37408;DHT22;24866;50.248;8.252;2022-11-02T05:21:53;10.30;99.90
37408;DHT22;24866;50.248;8.252;2022-11-02T05:24:23;10.30;99.90
37408;DHT22;24866;50.248;8.252;2022-11-02T05:26:54;10.20;99.90
37408;DHT22;24866;50.248;8.252;2022-11-02T05:29:23;10.10;99.90
37408;DHT22;24866;50.248;8.252;2022-11-02T05:31:53;10.00;99.90
37408;DHT22;24866;50.248;8.252;2022-11-02T05:34:24;10.00;99.90
37408;DHT22;24866;50.248;8.252;2022-11-02T05:36:55;10.00;99.90
37408;DHT22;24866;50.248;8.252;2022-11-02T05:39:25;9.90;99.90
37408;DHT22;24866;50.248;8.252;2022-11-02T05:41:55;9.90;99.90
37408;DHT22;24866;50.248;8.252;2022-11-02T05:44:24;9.90;99.90
37408;DHT22;24866;50.248;8.252;2022-11-02T05:46:54;9.90;99.90
37408;DHT22;24866;50.248;8.252;2022-11-02T05:49:25;9.90;99.90
37408;DHT22;24866;50.248;8.252;2022-11-02T05:51:55;9.80;99.90
37408;DHT22;24866;50.248;8.252;2022-11-02T05:54:26;9.90;99.90
37408;DHT22;24866;50.248;8.252;2022-11-02T05:56:56;9.90;99.90
37408;DHT22;24866;50.248;8.252;2022-11-02T05:59:26;9.80;99.90
37408;DHT22;24866;50.248;8.252;2022-11-02T06:01:55;9.80;99.90
37408;DHT22;24866;50.248;8.252;2022-11-02T06:04:27;9.80;99.90
37408;DHT22;24866;50.248;8.252;2022-11-02T06:06:57;9.80;99.90
37408;DHT22;24866;50.248;8.252;2022-11-02T06:09:26;9.80;99.90
37408;DHT22;24866;50.248;8.252;2022-11-02T06:11:56;9.80;99.90
37408;DHT22;24866;50.248;8.252;2022-11-02T06:14:26;9.80;99.90
37408;DHT22;24866;50.248;8.252;2022-11-02T06:16:56;9.90;99.90
37408;DHT22;24866;50.248;8.252;2022-11-02T06:19:27;10.10;99.90
37408;DHT22;24866;50.248;8.252;2022-11-02T06:21:57;10.20;99.90
37408;DHT22;24866;50.248;8.252;2022-11-02T06:24:27;10.20;99.90
37408;DHT22;24866;50.248;8.252;2022-11-02T06:26:57;10.20;99.90
37408;DHT22;24866;50.248;8.252;2022-11-02T06:29:27;10.20;99.90
37408;DHT22;24866;50.248;8.252;2022-11-02T06:31:56;10.10;99.90
37408;DHT22;24866;50.248;8.252;2022-11-02T06:34:28;10.20;99.90
37408;DHT22;24866;50.248;8.252;2022-11-02T06:36:58;10.20;99.90
37408;DHT22;24866;50.248;8.252;2022-11-02T06:39:27;10.30;99.90
37408;DHT22;24866;50.248;8.252;2022-11-02T06:41:58;10.20;99.90
37408;DHT22;24866;50.248;8.252;2022-11-02T06:44:28;10.30;99.90
37408;DHT22;24866;50.248;8.252;2022-11-02T06:46:57;10.20;99.90
37408;DHT22;24866;50.248;8.252;2022-11-02T06:49:29;10.30;99.90
37408;DHT22;24866;50.248;8.252;2022-11-02T06:51:58;10.30;99.90
37408;DHT22;24866;50.248;8.252;2022-11-02T06:54:28;10.40;99.90
37408;DHT22;24866;50.248;8.252;2022-11-02T06:56:58;10.40;99.90
37408;DHT22;24866;50.248;8.252;2022-11-02T06:59:28;10.30;99.90
37408;DHT22;24866;50.248;8.252;2022-11-02T07:01:58;10.40;99.90
37408;DHT22;24866;50.248;8.252;2022-11-02T07:04:29;10.40;99.90
37408;DHT22;24866;50.248;8.252;2022-11-02T07:06:59;10.40;99.90
37408;DHT22;24866;50.248;8.252;2022-11-02T07:09:29;10.40;99.90
37408;DHT22;24866;50.248;8.252;2022-11-02T07:11:59;10.40;99.90
37408;DHT22;24866;50.248;8.252;2022-11-02T07:14:29;10.50;99.90
37408;DHT22;24866;50.248;8.252;2022-11-02T07:16:59;10.60;99.90
37408;DHT22;24866;50.248;8.252;2022-11-02T07:19:30;10.60;99.90
37408;DHT22;24866;50.248;8.252;2022-11-02T07:22:01;10.70;99.90
37408;DHT22;24866;50.248;8.252;2022-11-02T07:24:31;10.80;99.90
37408;DHT22;24866;50.248;8.252;2022-11-02T07:27:01;10.90;99.90
37408;DHT22;24866;50.248;8.252;2022-11-02T07:29:30;11.00;99.90
37408;DHT22;24866;50.248;8.252;2022-11-02T07:32:00;11.00;99.90
37408;DHT22;24866;50.248;8.252;2022-11-02T07:34:32;11.10;99.90
37408;DHT22;24866;50.248;8.252;2022-11-02T07:37:02;11.30;99.90
37408;DHT22;24866;50.248;8.252;2022-11-02T07:39:32;11.40;99.90
37408;DHT22;24866;50.248;8.252;2022-11-02T07:42:02;11.50;99.90
37408;DHT22;24866;50.248;8.252;2022-11-02T07:44:32;11.70;99.90
37408;DHT22;24866;50.248;8.252;2022-11-02T07:47:02;11.70;99.90
37408;DHT22;24866;50.248;8.252;2022-11-02T07:49:35;11.80;99.90
37408;DHT22;24866;50.248;8.252;2022-11-02T07:52:05;11.80;99.90
37408;DHT22;24866;50.248;8.252;2022-11-02T07:54:35;11.90;99.90
37408;DHT22;24866;50.248;8.252;2022-11-02T07:57:05;11.90;99.90
37408;DHT22;24866;50.248;8.252;2022-11-02T07:59:34;11.80;99.90
37408;DHT22;24866;50.248;8.252;2022-11-02T08:02:04;11.70;99.90
37408;DHT22;24866;50.248;8.252;2022-11-02T08:04:36;11.70;99.90
37408;DHT22;24866;50.248;8.252;2022-11-02T08:07:06;11.80;99.90
37408;DHT22;24866;50.248;8.252;2022-11-02T08:09:35;11.90;99.90
37408;DHT22;24866;50.248;8.252;2022-11-02T08:12:05;11.90;99.90
37408;DHT22;24866;50.248;8.252;2022-11-02T08:14:35;11.80;99.90
37408;DHT22;24866;50.248;8.252;2022-11-02T08:17:05;11.80;99.90
37408;DHT22;24866;50.248;8.252;2022-11-02T08:19:36;11.80;99.90
37408;DHT22;24866;50.248;8.252;2022-11-02T08:22:06;11.80;99.90
37408;DHT22;24866;50.248;8.252;2022-11-02T08:24:36;11.70;99.90
37408;DHT22;24866;50.248;8.252;2022-11-02T08:27:06;11.80;99.90
37408;DHT22;24866;50.248;8.252;2022-11-02T08:29:36;11.80;99.90
37408;DHT22;24866;50.248;8.252;2022-11-02T08:32:06;11.90;99.90
37408;DHT22;24866;50.248;8.252;2022-11-02T08:34:37;11.90;99.90
37408;DHT22;24866;50.248;8.252;2022-11-02T08:37:07;12.00;99.90
37408;DHT22;24866;50.248;8.252;2022-11-02T08:39:37;12.00;99.90
37408;DHT22;24866;50.248;8.252;2022-11-02T08:42:07;12.00;99.90
37408;DHT22;24866;50.248;8.252;2022-11-02T08:44:37;12.10;99.90
37408;DHT22;24866;50.248;8.252;2022-11-02T08:47:07;12.10;99.90
37408;DHT22;24866;50.248;8.252;2022-11-02T08:49:46;12.00;99.90
37408;DHT22;24866;50.248;8.252;2022-11-02T08:52:17;12.00;99.90
37408;DHT22;24866;50.248;8.252;2022-11-02T08:54:47;12.00;99.90
37408;DHT22;24866;50.248;8.252;2022-11-02T08:57:16;12.00;99.90
37408;DHT22;24866;50.248;8.252;2022-11-02T08:59:46;12.10;99.90
37408;DHT22;24866;50.248;8.252;2022-11-02T09:02:16;12.40;99.90
37408;DHT22;24866;50.248;8.252;2022-11-02T09:04:47;12.50;99.90
37408;DHT22;24866;50.248;8.252;2022-11-02T09:07:17;12.70;99.90
37408;DHT22;24866;50.248;8.252;2022-11-02T09:09:47;12.70;99.90
37408;DHT22;24866;50.248;8.252;2022-11-02T09:12:17;12.80;99.90
37408;DHT22;24866;50.248;8.252;2022-11-02T09:14:47;12.90;99.90
37408;DHT22;24866;50.248;8.252;2022-11-02T09:17:17;12.90;99.90
37408;DHT22;24866;50.248;8.252;2022-11-02T09:19:48;12.90;99.90
37408;DHT22;24866;50.248;8.252;2022-11-02T09:22:18;12.90;99.90
37408;DHT22;24866;50.248;8.252;2022-11-02T09:24:48;13.00;99.90
37408;DHT22;24866;50.248;8.252;2022-11-02T09:27:18;13.10;99.90
37408;DHT22;24866;50.248;8.252;2022-11-02T09:29:48;13.10;99.90
37408;DHT22;24866;50.248;8.252;2022-11-02T09:32:18;13.20;99.90
37408;DHT22;24866;50.248;8.252;2022-11-02T09:34:49;13.40;99.90
37408;DHT22;24866;50.248;8.252;2022-11-02T09:37:19;13.60;99.90
37408;DHT22;24866;50.248;8.252;2022-11-02T09:39:49;13.20;99.90
37408;DHT22;24866;50.248;8.252;2022-11-02T09:42:23;13.00;99.90
37408;DHT22;24866;50.248;8.252;2022-11-02T09:44:57;13.10;99.90
37408;DHT22;24866;50.248;8.252;2022-11-02T09:47:30;13.10;99.90
37408;DHT22;24866;50.248;8.252;2022-11-02T09:50:03;13.40;99.90
37408;DHT22;24866;50.248;8.252;2022-11-02T09:52:36;13.60;99.90
37408;DHT22;24866;50.248;8.252;2022-11-02T09:55:14;13.70;99.90
37408;DHT22;24866;50.248;8.252;2022-11-02T09:57:48;13.70;99.90
37408;DHT22;24866;50.248;8.252;2022-11-02T10:00:19;13.60;99.90
37408;DHT22;24866;50.248;8.252;2022-11-02T10:02:56;13.80;99.90
37408;DHT22;24866;50.248;8.252;2022-11-02T10:05:37;13.80;99.90
37408;DHT22;24866;50.248;8.252;2022-11-02T10:08:24;13.70;99.90
37408;DHT22;24866;50.248;8.252;2022-11-02T10:11:05;13.80;99.90
37408;DHT22;24866;50.248;8.252;2022-11-02T10:13:39;14.00;99.90
37408;DHT22;24866;50.248;8.252;2022-11-02T10:16:14;14.10;99.90
37408;DHT22;24866;50.248;8.252;2022-11-02T10:18:47;13.80;99.90
37408;DHT22;24866;50.248;8.252;2022-11-02T10:21:20;13.90;99.90
37408;DHT22;24866;50.248;8.252;2022-11-02T10:23:53;13.90;99.90
37408;DHT22;24866;50.248;8.252;2022-11-02T10:26:26;14.20;99.90
37408;DHT22;24866;50.248;8.252;2022-11-02T10:28:58;14.00;99.90
37408;DHT22;24866;50.248;8.252;2022-11-02T10:31:31;14.00;99.90
37408;DHT22;24866;50.248;8.252;2022-11-02T10:34:15;14.50;99.90
37408;DHT22;24866;50.248;8.252;2022-11-02T10:36:58;14.60;99.90
37408;DHT22;24866;50.248;8.252;2022-11-02T10:39:32;14.10;99.90
37408;DHT22;24866;50.248;8.252;2022-11-02T10:42:31;14.40;99.90
37408;DHT22;24866;50.248;8.252;2022-11-02T10:45:19;14.80;99.90
37408;DHT22;24866;50.248;8.252;2022-11-02T10:48:01;15.00;99.90
37408;DHT22;24866;50.248;8.252;2022-11-02T10:50:47;14.60;99.90
37408;DHT22;24866;50.248;8.252;2022-11-02T10:53:23;14.40;99.90
37408;DHT22;24866;50.248;8.252;2022-11-02T10:55:58;14.70;99.90
37408;DHT22;24866;50.248;8.252;2022-11-02T10:58:31;14.10;99.90
37408;DHT22;24866;50.248;8.252;2022-11-02T11:01:07;14.40;99.90
37408;DHT22;24866;50.248;8.252;2022-11-02T11:03:53;14.80;99.90
37408;DHT22;24866;50.248;8.252;2022-11-02T11:06:24;14.30;99.90
37408;DHT22;24866;50.248;8.252;2022-11-02T11:09:00;14.40;99.90
37408;DHT22;24866;50.248;8.252;2022-11-02T11:11:33;14.10;99.90
37408;DHT22;24866;50.248;8.252;2022-11-02T11:14:05;14.40;99.90
37408;DHT22;24866;50.248;8.252;2022-11-02T11:16:38;14.30;99.90
37408;DHT22;24866;50.248;8.252;2022-11-02T11:19:17;14.30;99.90
37408;DHT22;24866;50.248;8.252;2022-11-02T11:21:48;14.60;99.90
37408;DHT22;24866;50.248;8.252;2022-11-02T11:24:23;14.40;99.90
37408;DHT22;24866;50.248;8.252;2022-11-02T11:27:04;15.10;99.90
37408;DHT22;24866;50.248;8.252;2022-11-02T11:29:37;15.20;99.90
37408;DHT22;24866;50.248;8.252;2022-11-02T11:32:13;14.90;99.90
37408;DHT22;24866;50.248;8.252;2022-11-02T11:34:54;14.80;99.90
37408;DHT22;24866;50.248;8.252;2022-11-02T11:37:25;15.10;99.90
37408;DHT22;24866;50.248;8.252;2022-11-02T11:39:59;14.80;99.90
37408;DHT22;24866;50.248;8.252;2022-11-02T11:42:32;14.70;76.30
37408;DHT22;24866;50.248;8.252;2022-11-02T11:45:05;14.90;99.90
37408;DHT22;24866;50.248;8.252;2022-11-02T11:47:38;14.80;1.00
37408;DHT22;24866;50.248;8.252;2022-11-02T11:50:14;15.10;91.20
37408;DHT22;24866;50.248;8.252;2022-11-02T11:52:44;15.30;1.00
37408;DHT22;24866;50.248;8.252;2022-11-02T11:55:24;15.00;99.90
37408;DHT22;24866;50.248;8.252;2022-11-02T11:58:05;15.00;99.90
37408;DHT22;24866;50.248;8.252;2022-11-02T12:00:35;14.50;99.90
37408;DHT22;24866;50.248;8.252;2022-11-02T12:03:06;14.30;1.00
37408;DHT22;24866;50.248;8.252;2022-11-02T12:05:48;14.20;1.00
37408;DHT22;24866;50.248;8.252;2022-11-02T12:08:33;14.30;99.90
37408;DHT22;24866;50.248;8.252;2022-11-02T12:11:24;14.00;99.90
37408;DHT22;24866;50.248;8.252;2022-11-02T12:14:07;14.00;99.90
37408;DHT22;24866;50.248;8.252;2022-11-02T12:17:17;14.10;99.90
37408;DHT22;24866;50.248;8.252;2022-11-02T12:20:03;13.90;99.90
37408;DHT22;24866;50.248;8.252;2022-11-02T12:22:43;14.00;99.90
37408;DHT22;24866;50.248;8.252;2022-11-02T12:25:27;13.80;99.90
37408;DHT22;24866;50.248;8.252;2022-11-02T12:28:15;13.90;99.90
37408;DHT22;24866;50.248;8.252;2022-11-02T12:30:54;14.10;99.90
37408;DHT22;24866;50.248;8.252;2022-11-02T12:33:38;14.30;99.90
37408;DHT22;24866;50.248;8.252;2022-11-02T12:36:26;14.10;1.00
37408;DHT22;24866;50.248;8.252;2022-11-02T12:39:00;14.50;99.90
37408;DHT22;24866;50.248;8.252;2022-11-02T12:41:50;14.40;54.90
37408;DHT22;24866;50.248;8.252;2022-11-02T12:44:37;14.60;1.00
37408;DHT22;24866;50.248;8.252;2022-11-02T12:47:23;14.80;99.90
37408;DHT22;24866;50.248;8.252;2022-11-02T12:50:03;15.10;1.00
37408;DHT22;24866;50.248;8.252;2022-11-02T12:52:46;14.80;1.00
37408;DHT22;24866;50.248;8.252;2022-11-02T12:55:20;14.90;1.00
37408;DHT22;24866;50.248;8.252;2022-11-02T12:57:57;14.90;1.00
37408;DHT22;24866;50.248;8.252;2022-11-02T13:00:30;15.00;1.00
37408;DHT22;24866;50.248;8.252;2022-11-02T13:03:01;15.20;99.90
37408;DHT22;24866;50.248;8.252;2022-11-02T13:05:36;15.10;1.00
37408;DHT22;24866;50.248;8.252;2022-11-02T13:08:10;14.90;1.00
37408;DHT22;24866;50.248;8.252;2022-11-02T13:10:44;15.10;99.90
37408;DHT22;24866;50.248;8.252;2022-11-02T13:13:25;14.90;1.00
37408;DHT22;24866;50.248;8.252;2022-11-02T13:16:02;14.90;1.00
37408;DHT22;24866;50.248;8.252;2022-11-02T13:18:36;14.80;1.00
37408;DHT22;24866;50.248;8.252;2022-11-02T13:21:10;14.90;1.00
37408;DHT22;24866;50.248;8.252;2022-11-02T13:23:45;15.00;99.90
37408;DHT22;24866;50.248;8.252;2022-11-02T13:26:25;15.60;1.00
37408;DHT22;24866;50.248;8.252;2022-11-02T13:29:00;15.30;99.90
37408;DHT22;24866;50.248;8.252;2022-11-02T13:31:35;15.50;99.90
37408;DHT22;24866;50.248;8.252;2022-11-02T13:34:09;15.50;99.90
37408;DHT22;24866;50.248;8.252;2022-11-02T13:36:41;15.80;99.90
37408;DHT22;24866;50.248;8.252;2022-11-02T13:39:16;15.60;1.00
37408;DHT22;24866;50.248;8.252;2022-11-02T13:45:25;15.20;1.00
37408;DHT22;24866;50.248;8.252;2022-11-02T13:48:27;15.00;99.90
37408;DHT22;24866;50.248;8.252;2022-11-02T13:51:05;16.00;99.90
37408;DHT22;24866;50.248;8.252;2022-11-02T13:53:38;15.50;1.00
37408;DHT22;24866;50.248;8.252;2022-11-02T13:56:11;14.90;99.90
37408;DHT22;24866;50.248;8.252;2022-11-02T13:58:55;15.40;1.00
37408;DHT22;24866;50.248;8.252;2022-11-02T14:01:29;15.40;1.00
37408;DHT22;24866;50.248;8.252;2022-11-02T14:04:05;15.40;1.00
37408;DHT22;24866;50.248;8.252;2022-11-02T14:06:44;15.10;99.90
37408;DHT22;24866;50.248;8.252;2022-11-02T14:09:32;14.90;99.90
37408;DHT22;24866;50.248;8.252;2022-11-02T14:18:27;14.90;99.90
37408;DHT22;24866;50.248;8.252;2022-11-02T14:27:26;15.10;99.90
37408;DHT22;24866;50.248;8.252;2022-11-02T14:29:57;15.20;99.90
37408;DHT22;24866;50.248;8.252;2022-11-02T14:32:53;15.10;99.90
37408;DHT22;24866;50.248;8.252;2022-11-02T14:35:39;14.70;1.00
37408;DHT22;24866;50.248;8.252;2022-11-02T14:38:49;14.70;1.00
37408;DHT22;24866;50.248;8.252;2022-11-02T14:41:51;14.60;1.00
37408;DHT22;24866;50.248;8.252;2022-11-02T14:44:43;14.70;1.00
37408;DHT22;24866;50.248;8.252;2022-11-02T14:47:26;14.80;1.00
37408;DHT22;24866;50.248;8.252;2022-11-02T14:50:00;14.80;99.90
37408;DHT22;24866;50.248;8.252;2022-11-02T14:52:33;14.70;99.90
37408;DHT22;24866;50.248;8.252;2022-11-02T14:55:25;14.60;1.00
37408;DHT22;24866;50.248;8.252;2022-11-02T14:57:58;14.70;1.00
37408;DHT22;24866;50.248;8.252;2022-11-02T15:00:34;14.50;99.90
37408;DHT22;24866;50.248;8.252;2022-11-02T15:03:10;14.50;99.90
37408;DHT22;24866;50.248;8.252;2022-11-02T15:05:43;14.50;1.00
37408;DHT22;24866;50.248;8.252;2022-11-02T15:08:22;14.50;1.00
37408;DHT22;24866;50.248;8.252;2022-11-02T15:10:56;14.30;1.00
37408;DHT22;24866;50.248;8.252;2022-11-02T15:13:35;14.20;1.00
37408;DHT22;24866;50.248;8.252;2022-11-02T15:16:22;14.20;1.00
37408;DHT22;24866;50.248;8.252;2022-11-02T15:18:52;14.20;1.00
37408;DHT22;24866;50.248;8.252;2022-11-02T15:21:24;14.10;1.00
37408;DHT22;24866;50.248;8.252;2022-11-02T15:24:12;14.10;1.00
37408;DHT22;24866;50.248;8.252;2022-11-02T15:26:52;13.90;1.00
37408;DHT22;24866;50.248;8.252;2022-11-02T15:29:36;13.90;1.00
37408;DHT22;24866;50.248;8.252;2022-11-02T15:32:13;13.70;1.00
37408;DHT22;24866;50.248;8.252;2022-11-02T15:34:47;13.70;1.00
37408;DHT22;24866;50.248;8.252;2022-11-02T15:37:19;13.60;65.80
37408;DHT22;24866;50.248;8.252;2022-11-02T15:39:51;13.60;99.90
37408;DHT22;24866;50.248;8.252;2022-11-02T15:42:35;13.50;1.00
37408;DHT22;24866;50.248;8.252;2022-11-02T15:45:19;13.30;99.90
37408;DHT22;24866;50.248;8.252;2022-11-02T15:47:58;13.30;1.00
37408;DHT22;24866;50.248;8.252;2022-11-02T15:50:47;13.10;99.90
37408;DHT22;24866;50.248;8.252;2022-11-02T15:53:36;13.10;1.00
37408;DHT22;24866;50.248;8.252;2022-11-02T15:56:18;13.30;1.00
37408;DHT22;24866;50.248;8.252;2022-11-02T15:59:16;13.20;1.00
37408;DHT22;24866;50.248;8.252;2022-11-02T16:02:06;13.10;99.90
37408;DHT22;24866;50.248;8.252;2022-11-02T16:04:44;13.00;1.00
37408;DHT22;24866;50.248;8.252;2022-11-02T16:07:15;12.80;37.20
37408;DHT22;24866;50.248;8.252;2022-11-02T16:09:46;12.80;99.90
37408;DHT22;24866;50.248;8.252;2022-11-02T16:12:17;12.80;99.90
37408;DHT22;24866;50.248;8.252;2022-11-02T16:14:53;12.70;99.90
37408;DHT22;24866;50.248;8.252;2022-11-02T16:17:26;12.80;99.90
37408;DHT22;24866;50.248;8.252;2022-11-02T16:20:09;12.80;99.90
37408;DHT22;24866;50.248;8.252;2022-11-02T16:22:39;12.70;99.90
37408;DHT22;24866;50.248;8.252;2022-11-02T16:25:16;12.70;99.90
37408;DHT22;24866;50.248;8.252;2022-11-02T16:27:48;12.60;99.90
37408;DHT22;24866;50.248;8.252;2022-11-02T16:30:21;12.50;99.90
37408;DHT22;24866;50.248;8.252;2022-11-02T16:32:57;12.40;99.90
37408;DHT22;24866;50.248;8.252;2022-11-02T16:35:29;12.40;99.90
37408;DHT22;24866;50.248;8.252;2022-11-02T16:37:59;12.50;99.90